Time;durP1;ratioP1;P1;durP2;ratioP2;P2;SDS_P1;SDS_P2;PMS_P1;PMS_P2;Temp;Humidity;BMP_temperature;BMP_pressure;BME280_temperature;BME280_humidity;BME280_pressure;Samples;Min_cycle;Max_cycle;Signal;HPM_P1;HPM_P2
2022/10/08 00:04:05;;;;;;;0.68;0.50;;;;;;;-145.16;100.00;78048.47;645176;217;32387;-73
2022/10/08 00:10:23;;;;;;;0.82;0.82;;;;;;;-145.16;100.00;78029.34;645193;217;32382;-73
2022/10/08 00:16:41;;;;;;;1.05;0.50;;;;;;;-145.16;100.00;78052.50;645189;218;32364;-73
2022/10/08 00:23:00;;;;;;;0.22;0.22;;;;;;;-145.16;100.00;78041.42;645180;217;32371;-73
2022/10/08 00:29:19;;;;;;;0.20;0.20;;;;;;;-145.16;100.00;78066.59;645183;217;32445;-73
2022/10/08 00:35:37;;;;;;;0.40;0.20;;;;;;;-145.16;100.00;78073.64;653703;217;43163;-73
2022/10/08 00:41:55;;;;;;;0.03;0.03;;;;;;;-145.16;100.00;78085.72;653748;218;36537;-73
2022/10/08 00:48:13;;;;;;;0.10;0.10;;;;;;;-145.16;100.00;78108.88;645226;217;34616;-73
2022/10/08 00:54:32;;;;;;;0.65;0.40;;;;;;;-145.16;100.00;78196.48;653700;218;32359;-73
2022/10/08 01:00:50;;;;;;;0.20;0.20;;;;;;;-145.16;100.00;78158.22;645191;217;32388;-73
2022/10/08 01:07:12;;;;;;;0.10;0.10;;;;;;;-145.16;100.00;78152.19;653656;214;33334;-73
2022/10/08 01:13:32;;;;;;;2.72;0.93;;;;;;;-145.16;100.00;78150.17;645266;217;35333;-73
2022/10/08 01:19:53;;;;;;;4.90;0.40;;;;;;;-145.16;100.00;78153.19;645066;217;32387;-73
2022/10/08 01:26:27;;;;;;;0.23;0.23;;;;;;;-145.16;100.00;78163.26;645256;217;34286;-73
2022/10/08 01:32:47;;;;;;;1.00;1.00;;;;;;;-145.16;100.00;78180.38;645183;217;34347;-73
2022/10/08 01:39:04;;;;;;;0.85;0.45;;;;;;;-145.16;100.00;78194.47;653686;217;32362;-73
2022/10/08 01:45:23;;;;;;;0.80;0.80;;;;;;;-145.16;100.00;78183.40;653693;217;32374;-73
2022/10/08 01:51:41;;;;;;;0.00;0.00;;;;;;;-145.16;100.00;78146.14;645171;218;32376;-73
2022/10/08 01:57:59;;;;;;;0.30;0.30;;;;;;;-145.16;100.00;78142.11;653696;217;32379;-73
2022/10/08 02:04:33;;;;;;;0.00;0.00;;;;;;;-145.16;100.00;78144.13;653718;217;32395;-73
2022/10/08 02:10:51;;;;;;;0.50;0.50;;;;;;;-145.16;100.00;78182.39;645186;217;32324;-73
2022/10/08 02:17:09;;;;;;;0.30;0.30;;;;;;;-145.16;100.00;78188.44;645191;217;33289;-72
2022/10/08 02:23:29;;;;;;;1.17;0.37;;;;;;;-145.16;100.00;78239.79;653685;217;33330;-73
2022/10/08 02:29:47;;;;;;;0.60;0.60;;;;;;;-145.16;100.00;78192.46;645185;217;32453;-73
2022/10/08 02:36:05;;;;;;;0.40;0.27;;;;;;;-145.16;100.00;78134.06;653707;217;32318;-73
2022/10/08 02:42:23;;;;;;;3.10;0.50;;;;;;;-145.16;100.00;78128.02;645193;217;32387;-72
2022/10/08 02:48:41;;;;;;;0.20;0.20;;;;;;;-145.16;100.00;78139.09;645268;217;34279;-73
2022/10/08 02:55:02;;;;;;;0.00;0.00;;;;;;;-145.16;100.00;78145.13;645092;217;34320;-73
2022/10/08 03:01:25;;;;;;;0.10;0.10;;;;;;;-145.16;100.00;78133.05;645231;217;34376;-72
2022/10/08 03:07:39;;;;;;;0.10;0.10;;;;;;;-145.16;100.00;78121.97;653693;217;33329;-73
2022/10/08 03:13:57;;;;;;;0.27;0.27;;;;;;;-145.16;100.00;78141.11;653714;218;32371;-73
2022/10/08 03:20:16;;;;;;;2.10;0.80;;;;;;;-145.16;100.00;78183.40;645196;217;33376;-72
2022/10/08 03:26:34;;;;;;;0.47;0.47;;;;;;;-145.16;100.00;78244.83;645182;217;53813;-73
2022/10/08 03:32:52;;;;;;;8.60;1.00;;;;;;;-145.16;100.00;78265.97;653700;217;34314;-73
2022/10/08 03:39:10;;;;;;;1.10;1.10;;;;;;;-145.16;100.00;78280.06;653760;217;34322;-73
2022/10/08 03:45:28;;;;;;;0.20;0.20;;;;;;;-145.16;100.00;78305.24;645240;217;35304;-72
2022/10/08 03:51:46;;;;;;;0.00;0.00;;;;;;;-145.16;100.00;78296.18;645181;217;33624;-73
2022/10/08 03:58:05;;;;;;;0.60;0.20;;;;;;;-145.16;100.00;78232.73;645244;218;39833;-73
2022/10/08 04:04:24;;;;;;;0.10;0.10;;;;;;;-145.16;100.00;78243.81;653688;218;32582;-73
2022/10/08 04:10:42;;;;;;;0.17;0.17;;;;;;;-145.16;100.00;78241.80;645165;217;33346;-73
2022/10/08 04:17:01;;;;;;;0.50;0.50;;;;;;;-145.16;100.00;78254.89;653682;217;33364;-72
2022/10/08 04:23:19;;;;;;;0.10;0.10;;;;;;;-145.16;100.00;78217.64;645257;218;35359;-73
2022/10/08 04:29:38;;;;;;;0.35;0.35;;;;;;;-145.16;100.00;78243.81;645164;217;32393;-73
2022/10/08 04:35:56;;;;;;;0.50;0.50;;;;;;;-145.16;100.00;78247.84;645179;218;33376;-73
2022/10/08 04:42:14;;;;;;;0.15;0.15;;;;;;;-145.16;100.00;78260.94;653717;217;32392;-72
2022/10/08 04:48:35;;;;;;;0.37;0.37;;;;;;;-145.16;100.00;78266.98;653749;218;34375;-73
2022/10/08 04:54:53;;;;;;;0.28;0.22;;;;;;;-145.16;100.00;78302.22;645169;217;43128;-73
2022/10/08 05:01:12;;;;;;;0.10;0.10;;;;;;;-145.16;100.00;78292.16;645194;217;32457;-73
2022/10/08 05:07:30;;;;;;;1.00;0.20;;;;;;;-145.16;100.00;78290.14;645278;217;34501;-73
2022/10/08 05:13:49;;;;;;;0.00;0.00;;;;;;;-145.16;100.00;78270.00;645174;217;32360;-73
2022/10/08 05:20:07;;;;;;;0.90;0.90;;;;;;;-145.16;100.00;78291.14;653750;217;34338;-73
2022/10/08 05:26:25;;;;;;;3.00;0.50;;;;;;;-145.16;100.00;78285.10;653710;217;32387;-73
2022/10/08 05:32:44;;;;;;;0.20;0.20;;;;;;;-145.16;100.00;78297.19;643147;217;32359;-73
2022/10/08 05:39:02;;;;;;;0.10;0.10;;;;;;;-145.16;100.00;78326.39;636341;217;32533;-72
2022/10/08 05:45:20;;;;;;;0.30;0.30;;;;;;;-145.16;100.00;78347.53;653729;218;34328;-72
2022/10/08 05:51:38;;;;;;;1.10;1.00;;;;;;;-145.16;100.00;78343.51;653688;217;33390;-73
2022/10/08 05:57:56;;;;;;;0.87;0.87;;;;;;;-145.16;100.00;78360.63;653698;218;32671;-73
2022/10/08 06:04:14;;;;;;;1.20;0.80;;;;;;;-145.16;100.00;78358.61;645231;217;35307;-73
2022/10/08 06:10:33;;;;;;;0.40;0.40;;;;;;;-145.16;100.00;78362.64;645162;218;32395;-73
2022/10/08 06:16:51;;;;;;;0.30;0.30;;;;;;;-145.16;100.00;78299.20;653673;217;34326;-73
2022/10/08 06:23:09;;;;;;;0.47;0.47;;;;;;;-145.16;100.00;78107.88;645176;217;32392;-72
2022/10/08 06:29:27;;;;;;;0.17;0.17;;;;;;;-145.16;100.00;77933.69;645246;217;33306;-73
2022/10/08 06:35:45;;;;;;;0.60;0.60;;;;;;;-145.16;100.00;77800.77;645262;217;34274;-73
2022/10/08 06:42:04;;;;;;;0.52;0.52;;;;;;;-145.16;100.00;77683.98;645145;218;32395;-74
2022/10/08 06:48:25;;;;;;;0.20;0.20;;;;;;;-145.16;100.00;77591.36;645039;218;32359;-73
2022/10/08 06:54:43;;;;;;;0.90;0.90;;;;;;;-145.16;100.00;77650.77;643722;217;32501;-73
2022/10/08 07:01:02;;;;;;;9.10;0.50;;;;;;;-145.16;100.00;77497.73;645151;217;32368;-74
2022/10/08 07:07:20;;;;;;;1.60;0.40;;;;;;;-145.16;100.00;77435.31;641324;218;32410;-73
2022/10/08 07:13:38;;;;;;;0.43;0.43;;;;;;;-145.16;100.00;77324.57;636539;217;32566;-74
2022/10/08 07:19:57;;;;;;;0.37;0.37;;;;;;;-145.16;100.00;77369.88;653672;217;32427;-74
2022/10/08 07:26:15;;;;;;;0.40;0.40;;;;;;;-145.16;100.00;77471.55;645177;218;32378;-74
2022/10/08 07:32:34;;;;;;;0.50;0.50;;;;;;;-145.16;100.00;77427.26;641661;217;32489;-73
2022/10/08 07:38:52;;;;;;;1.00;1.00;;;;;;;-145.16;100.00;77285.31;643331;218;32602;-72
2022/10/08 07:45:10;;;;;;;0.40;0.40;;;;;;;-145.16;100.00;77245.05;645137;217;32328;-74
2022/10/08 07:51:30;;;;;;;0.40;0.40;;;;;;;-145.16;100.00;77247.05;645169;217;32370;-72
2022/10/08 07:57:47;;;;;;;0.40;0.40;;;;;;;-145.16;100.00;77263.16;636556;217;32509;-72
2022/10/08 08:04:09;;;;;;;0.90;0.90;;;;;;;-145.16;100.00;77112.16;644662;217;32341;-72
2022/10/08 08:10:27;;;;;;;0.70;0.70;;;;;;;-145.16;100.00;77057.80;644707;217;32336;-72
2022/10/08 08:16:45;;;;;;;0.50;0.50;;;;;;;-145.16;93.18;77099.08;645128;217;43076;-72
2022/10/08 08:23:03;;;;;;;0.45;0.45;;;;;;;-145.16;96.04;77157.46;645134;217;43074;-72
2022/10/08 08:29:24;;;;;;;0.70;0.70;;;;;;;-145.16;95.80;77248.06;645032;217;32422;-72
2022/10/08 08:35:43;;;;;;;6.30;0.70;;;;;;;-145.16;89.25;77082.97;645170;218;43102;-72
2022/10/08 08:42:01;;;;;;;0.40;0.40;;;;;;;-145.16;89.65;77180.61;638361;217;43274;-72
2022/10/08 08:48:19;;;;;;;0.43;0.43;;;;;;;-145.16;84.87;77050.76;645160;217;32401;-72
2022/10/08 08:54:39;;;;;;;1.60;0.90;;;;;;;-145.16;86.75;77179.61;645005;217;43093;-72
2022/10/08 09:00:59;;;;;;;2.30;0.70;;;;;;;-145.16;83.24;77148.41;645132;217;32423;-72
2022/10/08 09:07:18;;;;;;;2.60;0.77;;;;;;;-145.16;80.15;77103.10;645087;217;43365;-75
2022/10/08 09:13:36;;;;;;;0.50;0.50;;;;;;;-145.16;77.91;77059.82;645158;217;32351;-72
2022/10/08 09:19:55;;;;;;;0.40;0.40;;;;;;;-145.16;76.94;77020.56;653664;217;42948;-72
2022/10/08 09:26:14;;;;;;;1.20;0.70;;;;;;;-145.16;74.87;77162.50;644868;217;32392;-72
2022/10/08 09:32:43;;;;;;;0.80;0.80;;;;;;;-145.16;85.22;77482.63;653665;217;43075;-74
2022/10/08 09:39:01;;;;;;;0.50;0.50;;;;;;;-145.16;83.94;77428.27;645146;217;43284;-75
2022/10/08 09:45:25;;;;;;;0.60;0.60;;;;;;;-145.16;87.39;77690.02;645154;217;32318;-74
2022/10/08 09:51:45;;;;;;;0.70;0.70;;;;;;;-145.16;88.52;77570.22;645030;217;32388;-72
2022/10/08 09:58:05;;;;;;;0.45;0.45;;;;;;;-145.16;85.70;77722.24;649107;217;43038;-74
2022/10/08 10:04:26;;;;;;;0.40;0.40;;;;;;;-145.16;81.97;77339.67;653646;217;32330;-74
2022/10/08 10:10:50;;;;;;;1.05;1.00;;;;;;;-145.16;76.01;77427.26;645058;217;32367;-72
2022/10/08 10:17:10;;;;;;;0.50;0.40;;;;;;;-145.16;81.66;77612.50;645056;217;32367;-72
2022/10/08 10:23:29;;;;;;;0.40;0.40;;;;;;;-145.16;86.61;77844.07;653679;217;32365;-72
2022/10/08 10:29:47;;;;;;;0.20;0.20;;;;;;;-145.16;99.71;78000.14;645172;217;32364;-74
2022/10/08 10:36:08;;;;;;;1.80;0.90;;;;;;;-145.16;88.85;77574.24;644917;217;32409;-74
2022/10/08 10:42:28;;;;;;;0.25;0.25;;;;;;;-145.16;84.93;77640.69;653660;217;32654;-74
2022/10/08 10:48:46;;;;;;;3.22;3.03;;;;;;;-145.16;90.87;77664.86;645136;217;32370;-74
2022/10/08 10:55:07;;;;;;;0.32;0.32;;;;;;;-145.16;95.96;77868.23;647425;217;32376;-74
2022/10/08 11:01:43;;;;;;;0.25;0.25;;;;;;;-145.16;97.43;77780.64;645171;218;32318;-73
2022/10/08 11:08:03;;;;;;;0.52;0.52;;;;;;;-145.16;100.00;78096.80;646445;218;32425;-74
2022/10/08 11:14:32;;;;;;;0.50;0.50;;;;;;;-145.16;100.00;77651.77;653690;217;32315;-74
2022/10/08 11:20:56;;;;;;;0.50;0.50;;;;;;;-145.16;100.00;77821.92;642673;217;32306;-74
2022/10/08 11:27:17;;;;;;;0.40;0.40;;;;;;;-145.16;100.00;78061.56;653684;217;32351;-74
2022/10/08 11:33:35;;;;;;;0.30;0.30;;;;;;;-145.16;100.00;77636.66;645157;217;32387;-73
2022/10/08 11:39:53;;;;;;;0.13;0.13;;;;;;;-145.16;100.00;77834.00;645164;217;32363;-73
2022/10/08 11:46:14;;;;;;;0.10;0.10;;;;;;;-145.16;100.00;77775.61;653658;217;32394;-74
2022/10/08 11:49:37;;;;;;;1.75;1.65;;;;;;;-145.16;100.00;77807.83;647405;222;22657;-73
2022/10/08 11:55:26;;;;;;;0.10;0.10;;;;;;;-145.16;100.00;77868.23;645176;217;32344;-74
2022/10/08 12:01:44;;;;;;;0.32;0.32;;;;;;;-145.16;100.00;77794.73;645177;217;32368;-74
2022/10/08 12:08:04;;;;;;;0.40;0.20;;;;;;;-145.16;100.00;77808.83;645177;217;32356;-73
2022/10/08 12:14:56;;;;;;;1.70;0.88;;;;;;;-145.16;100.00;77814.88;645190;217;32394;-74
2022/10/08 12:21:19;;;;;;;1.10;0.37;;;;;;;-145.16;100.00;77852.13;653619;217;32441;-74
2022/10/08 12:24:47;;;;;;;0.20;0.20;;;;;;;-145.16;100.00;77749.42;647392;222;22670;-73
2022/10/08 12:30:38;;;;;;;0.50;0.50;;;;;;;-145.16;100.00;77696.06;645156;218;32373;-74
2022/10/08 12:36:56;;;;;;;0.20;0.20;;;;;;;-145.16;100.00;77737.34;645169;218;32391;-73
2022/10/08 12:43:14;;;;;;;2.50;0.55;;;;;;;-145.16;100.00;77742.38;645164;217;43043;-74
2022/10/08 12:49:37;;;;;;;0.20;0.20;;;;;;;-145.16;100.00;77788.69;645040;217;32350;-74
2022/10/08 12:55:56;;;;;;;0.50;0.30;;;;;;;-145.16;100.00;78049.48;653686;217;32368;-74
2022/10/08 13:02:14;;;;;;;0.10;0.10;;;;;;;-145.16;100.00;78000.14;645177;217;32360;-73
2022/10/08 13:08:39;;;;;;;0.20;0.20;;;;;;;-145.16;100.00;77946.77;653684;217;32668;-73
2022/10/08 13:14:57;;;;;;;0.20;0.20;;;;;;;-145.16;100.00;77949.79;653685;217;32448;-74
2022/10/08 13:21:25;;;;;;;0.90;0.60;;;;;;;-145.16;99.50;78000.14;653687;217;32350;-73
2022/10/08 13:27:44;;;;;;;0.50;0.40;;;;;;;-145.16;98.98;77951.81;645176;217;32317;-74
2022/10/08 13:34:03;;;;;;;1.87;0.37;;;;;;;-145.16;99.48;77953.82;645203;218;32400;-73
2022/10/08 13:40:21;;;;;;;1.45;0.47;;;;;;;-145.16;93.81;77941.73;645168;217;32362;-73
2022/10/08 13:46:40;;;;;;;0.10;0.10;;;;;;;-145.16;90.11;77970.94;645174;217;32332;-73
2022/10/08 13:52:58;;;;;;;0.20;0.20;;;;;;;-145.16;93.04;77991.08;645169;217;32385;-73
2022/10/08 13:59:16;;;;;;;0.35;0.35;;;;;;;-145.16;96.63;78027.33;653688;217;32699;-73
2022/10/08 14:05:37;;;;;;;0.30;0.30;;;;;;;-145.16;98.52;78059.55;645056;217;32413;-73
2022/10/08 14:12:00;;;;;;;0.30;0.30;;;;;;;-145.16;100.00;78145.13;645182;217;32378;-73
2022/10/08 14:18:15;;;;;;;0.20;0.20;;;;;;;-145.16;98.61;78145.13;645171;217;32695;-73
2022/10/08 14:24:35;;;;;;;0.25;0.25;;;;;;;-145.16;100.00;78194.47;653680;217;32360;-73
2022/10/08 14:30:53;;;;;;;1.30;0.30;;;;;;;-145.16;100.00;78181.38;645170;217;32401;-74
2022/10/08 14:37:11;;;;;;;2.80;0.90;;;;;;;-145.16;100.00;78159.23;645153;217;34308;-73
2022/10/08 14:43:35;;;;;;;0.10;0.10;;;;;;;-145.16;100.00;78158.22;645039;218;32377;-73
2022/10/08 14:49:55;;;;;;;2.00;1.10;;;;;;;-145.16;100.00;78193.47;645044;217;32349;-73
2022/10/08 14:56:13;;;;;;;0.10;0.10;;;;;;;-145.16;100.00;78159.23;653696;217;32358;-73
2022/10/08 15:02:33;;;;;;;0.10;0.10;;;;;;;-145.16;100.00;78167.29;640618;217;32371;-73
2022/10/08 15:08:49;;;;;;;0.10;0.10;;;;;;;-145.16;100.00;78229.72;645166;217;32378;-73
2022/10/08 15:15:10;;;;;;;0.73;0.52;;;;;;;-145.16;100.00;78227.70;645030;218;32370;-73
2022/10/08 15:21:28;;;;;;;0.30;0.30;;;;;;;-145.16;100.00;78260.94;645161;218;43112;-73
2022/10/08 15:27:46;;;;;;;0.20;0.20;;;;;;;-145.16;100.00;78227.70;645151;217;32396;-73
2022/10/08 15:34:08;;;;;;;0.50;0.50;;;;;;;-145.16;100.00;78281.08;653692;217;32335;-73
2022/10/08 15:40:27;;;;;;;0.10;0.10;;;;;;;-145.16;100.00;78301.22;653685;217;32348;-73
2022/10/08 15:46:45;;;;;;;0.50;0.40;;;;;;;-145.16;100.00;78344.52;645179;217;32302;-73
2022/10/08 15:53:06;;;;;;;0.17;0.17;;;;;;;-145.16;100.00;78293.16;645067;218;32356;-73
2022/10/08 15:59:25;;;;;;;0.10;0.10;;;;;;;-145.16;100.00;78290.14;642032;217;35416;-73
2022/10/08 16:05:43;;;;;;;0.10;0.10;;;;;;;-145.16;100.00;78337.47;641832;217;43038;-73
2022/10/08 16:12:01;;;;;;;0.62;0.25;;;;;;;-145.16;100.00;78352.57;645171;217;32658;-73
2022/10/08 16:18:20;;;;;;;0.10;0.10;;;;;;;-145.16;100.00;78401.91;653677;217;32439;-72
2022/10/08 16:24:39;;;;;;;0.15;0.15;;;;;;;-145.16;100.00;78405.94;653679;217;43106;-73
2022/10/08 16:30:57;;;;;;;3.20;0.60;;;;;;;-145.16;100.00;78436.16;653683;218;32382;-73
2022/10/08 16:37:15;;;;;;;0.10;0.10;;;;;;;-145.16;100.00;78455.29;645179;217;32428;-73
2022/10/08 16:43:34;;;;;;;0.00;0.00;;;;;;;-145.16;100.00;78490.53;645196;217;32384;-73
2022/10/08 16:49:52;;;;;;;1.80;0.30;;;;;;;-145.16;100.00;78539.88;653687;217;32409;-73
2022/10/08 16:56:10;;;;;;;0.10;0.10;;;;;;;-145.16;100.00;78574.12;645196;217;34338;-72
2022/10/08 17:02:28;;;;;;;0.80;0.80;;;;;;;-145.16;100.00;78620.45;645190;217;43101;-73
2022/10/08 17:08:47;;;;;;;0.10;0.10;;;;;;;-145.16;100.00;78646.63;643335;217;34625;-72
2022/10/08 17:15:05;;;;;;;0.00;0.00;;;;;;;-145.16;100.00;78695.98;643747;217;32360;-72
2022/10/08 17:21:23;;;;;;;0.10;0.10;;;;;;;-145.16;100.00;78733.23;645171;217;32356;-72
2022/10/08 17:27:41;;;;;;;0.00;0.00;;;;;;;-145.16;100.00;78750.36;645180;218;32360;-73
2022/10/08 17:33:59;;;;;;;0.10;0.10;;;;;;;-145.16;100.00;78770.50;636524;217;32556;-73
2022/10/08 17:40:17;;;;;;;0.10;0.10;;;;;;;-145.16;100.00;78806.77;641695;217;32497;-72
2022/10/08 17:46:36;;;;;;;0.10;0.10;;;;;;;-145.16;100.00;78835.97;650625;217;34293;-72
2022/10/08 17:52:54;;;;;;;0.00;0.00;;;;;;;-145.16;100.00;78859.13;645161;218;32378;-72
2022/10/08 17:59:12;;;;;;;0.08;0.08;;;;;;;-145.16;100.00;78892.37;645175;217;32339;-72
2022/10/08 18:05:31;;;;;;;0.10;0.10;;;;;;;-145.16;100.00;78950.78;653695;217;33344;-72
2022/10/08 18:11:49;;;;;;;0.00;0.00;;;;;;;-145.16;100.00;78949.78;645160;218;32373;-72
2022/10/08 18:18:07;;;;;;;0.00;0.00;;;;;;;-145.16;100.00;78966.90;645115;217;32374;-72
2022/10/08 18:24:26;;;;;;;0.10;0.10;;;;;;;-145.16;100.00;78973.95;645112;217;32397;-72
2022/10/08 18:30:44;;;;;;;0.07;0.07;;;;;;;-145.16;100.00;79021.29;645158;217;32363;-72
2022/10/08 18:37:04;;;;;;;0.22;0.22;;;;;;;-145.16;100.00;79047.48;645125;217;35309;-72
2022/10/08 18:43:23;;;;;;;0.00;0.00;;;;;;;-145.16;100.00;79054.52;645195;217;33313;-72
2022/10/08 18:49:41;;;;;;;0.10;0.10;;;;;;;-145.16;100.00;79062.58;645077;218;34280;-72
2022/10/08 18:56:01;;;;;;;0.13;0.13;;;;;;;-145.16;100.00;79069.63;634952;218;32680;-71
2022/10/08 19:02:20;;;;;;;0.00;0.00;;;;;;;-145.16;100.00;79077.69;640101;217;33038;-72
2022/10/08 19:08:38;;;;;;;0.00;0.00;;;;;;;-145.16;100.00;79092.80;636615;217;34565;-72
2022/10/08 19:14:56;;;;;;;0.00;0.00;;;;;;;-145.16;100.00;79106.90;636676;217;32502;-72
2022/10/08 19:21:14;;;;;;;0.10;0.10;;;;;;;-145.16;100.00;79114.96;645189;217;32387;-72
2022/10/08 19:27:34;;;;;;;0.00;0.00;;;;;;;-145.16;100.00;79136.11;645029;218;32380;-72
2022/10/08 19:33:52;;;;;;;0.10;0.10;;;;;;;-145.16;100.00;79137.12;645194;217;34338;-71
2022/10/08 19:40:13;;;;;;;0.00;0.00;;;;;;;-145.16;100.00;79152.23;645031;218;33401;-72
2022/10/08 19:46:31;;;;;;;0.00;0.00;;;;;;;-145.16;100.00;79170.36;645190;217;53847;-72
2022/10/08 19:52:50;;;;;;;0.00;0.00;;;;;;;-145.16;100.00;79188.48;653759;217;38599;-72
2022/10/08 19:59:11;;;;;;;0.00;0.00;;;;;;;-145.16;100.00;79182.45;645016;217;32367;-72
2022/10/08 20:05:30;;;;;;;0.10;0.10;;;;;;;-145.16;100.00;79192.52;653691;218;32406;-72
2022/10/08 20:11:49;;;;;;;0.00;0.00;;;;;;;-145.16;100.00;79204.61;645205;218;32359;-72
2022/10/08 20:18:07;;;;;;;0.10;0.10;;;;;;;-145.16;100.00;79213.67;645176;217;43083;-72
2022/10/08 20:24:25;;;;;;;0.00;0.00;;;;;;;-145.16;100.00;79235.83;645168;217;32382;-72
2022/10/08 20:30:43;;;;;;;0.10;0.10;;;;;;;-145.16;100.00;79229.78;643823;218;34291;-72
2022/10/08 20:37:01;;;;;;;0.07;0.07;;;;;;;-145.16;100.00;79216.69;645146;217;34318;-72
2022/10/08 20:43:20;;;;;;;0.10;0.10;;;;;;;-145.16;100.00;79222.73;649250;216;32672;-72
2022/10/08 20:49:38;;;;;;;0.00;0.00;;;;;;;-145.16;100.00;79232.80;641298;217;32374;-73
2022/10/08 20:55:55;;;;;;;0.00;0.00;;;;;;;-145.16;100.00;79248.92;645155;217;32391;-72
2022/10/08 21:02:14;;;;;;;0.00;0.00;;;;;;;-145.16;100.00;79272.09;641658;217;33485;-72
2022/10/08 21:08:32;;;;;;;0.00;0.00;;;;;;;-145.16;100.00;79276.13;652979;217;32395;-72
2022/10/08 21:14:50;;;;;;;0.00;0.00;;;;;;;-145.16;100.00;79286.19;645153;217;32357;-72
2022/10/08 21:21:08;;;;;;;0.00;0.00;;;;;;;-145.16;100.00;79292.23;645160;217;33646;-72
2022/10/08 21:27:26;;;;;;;0.00;0.00;;;;;;;-145.16;100.00;79294.25;648040;217;32355;-72
2022/10/08 21:33:46;;;;;;;0.00;0.00;;;;;;;-145.16;100.00;79300.30;653652;217;33345;-72
2022/10/08 21:40:05;;;;;;;0.00;0.00;;;;;;;-145.16;100.00;79308.36;645179;217;32375;-72
2022/10/08 21:46:23;;;;;;;0.00;0.00;;;;;;;-145.16;100.00;79302.31;645182;217;34317;-72
2022/10/08 21:52:41;;;;;;;0.10;0.10;;;;;;;-145.16;100.00;79308.36;653690;217;34298;-72
2022/10/08 21:59:08;;;;;;;0.10;0.10;;;;;;;-145.16;100.00;79326.48;645010;218;32653;-72
2022/10/08 22:05:27;;;;;;;0.10;0.10;;;;;;;-145.16;100.00;79369.80;653648;217;32379;-72
2022/10/08 22:11:45;;;;;;;0.00;0.00;;;;;;;-145.16;100.00;79363.75;641200;217;32398;-72
2022/10/08 22:18:04;;;;;;;0.00;0.00;;;;;;;-145.16;100.00;79355.70;657799;216;34299;-72
2022/10/08 22:24:22;;;;;;;0.50;0.50;;;;;;;-145.16;100.00;79328.50;645192;218;33339;-72
2022/10/08 22:30:40;;;;;;;0.00;0.00;;;;;;;-145.16;100.00;79329.51;653678;217;32371;-72
2022/10/08 22:37:01;;;;;;;0.00;0.00;;;;;;;-145.16;100.00;79356.70;653658;217;33407;-72
2022/10/08 22:43:19;;;;;;;0.00;0.00;;;;;;;-145.16;100.00;79364.77;653693;217;32352;-72
2022/10/08 22:49:38;;;;;;;0.00;0.00;;;;;;;-145.16;100.00;79376.84;653698;217;33363;-72
2022/10/08 22:55:56;;;;;;;0.00;0.00;;;;;;;-145.16;100.00;79365.77;645169;217;32394;-72
2022/10/08 23:02:14;;;;;;;0.00;0.00;;;;;;;-145.16;100.00;79408.08;645174;217;34333;-72
2022/10/08 23:08:32;;;;;;;0.10;0.10;;;;;;;-145.16;100.00;79394.98;645162;217;32367;-72
2022/10/08 23:14:50;;;;;;;0.10;0.10;;;;;;;-145.16;100.00;79458.44;645151;217;32386;-72
2022/10/08 23:21:09;;;;;;;0.00;0.00;;;;;;;-145.16;100.00;79506.80;645179;217;32341;-72
2022/10/08 23:27:27;;;;;;;0.07;0.07;;;;;;;-145.16;100.00;79563.20;653686;217;32394;-72
2022/10/08 23:33:46;;;;;;;0.00;0.00;;;;;;;-145.16;100.00;79567.23;653673;217;32376;-72
2022/10/08 23:40:04;;;;;;;0.30;0.30;;;;;;;-145.16;100.00;79578.31;653666;218;32666;-72
2022/10/08 23:46:22;;;;;;;0.00;0.00;;;;;;;-145.16;100.00;79547.09;645173;218;33373;-72
2022/10/08 23:52:40;;;;;;;0.00;0.00;;;;;;;-145.16;100.00;79556.16;645155;217;33359;-72
2022/10/08 23:58:58;;;;;;;0.00;0.00;;;;;;;-145.16;100.00;79530.97;645166;217;32374;-72
